Time;durP1;ratioP1;P1;durP2;ratioP2;P2;SDS_P1;SDS_P2;PMS_P1;PMS_P2;Temp;Humidity;BMP_temperature;BMP_pressure;BME280_temperature;BME280_humidity;BME280_pressure;Samples;Min_cycle;Max_cycle;Signal;HPM_P1;HPM_P2
2022/02/28 00:02:01;;;;;;;14.95;8.15;;;;;;;;;;5066080;28;20397;-57
2022/02/28 00:04:26;;;;;;;16.10;8.30;;;;;;;;;;5065907;28;20020;-59
2022/02/28 00:06:53;;;;;;;14.50;7.85;;;;;;;;;;5063851;28;20040;-58
2022/02/28 00:09:19;;;;;;;20.02;9.07;;;;;;;;;;5065529;28;20659;-58
2022/02/28 00:11:45;;;;;;;16.10;8.18;;;;;;;;;;5063623;28;20025;-59
2022/02/28 00:14:10;;;;;;;20.65;8.55;;;;;;;;;;5066402;28;20028;-57
2022/02/28 00:16:35;;;;;;;16.55;8.80;;;;;;;;;;5062383;28;20040;-58
2022/02/28 00:19:01;;;;;;;19.25;8.45;;;;;;;;;;5065415;28;20434;-59
2022/02/28 00:21:26;;;;;;;20.67;8.95;;;;;;;;;;5066315;28;20506;-56
2022/02/28 00:23:52;;;;;;;20.25;8.55;;;;;;;;;;5066634;28;20024;-57
2022/02/28 00:26:17;;;;;;;16.52;8.30;;;;;;;;;;5062173;28;20024;-58
2022/02/28 00:28:43;;;;;;;18.48;7.93;;;;;;;;;;5064780;28;20089;-58
2022/02/28 00:31:08;;;;;;;21.65;8.93;;;;;;;;;;5068388;28;20444;-58
2022/02/28 00:33:34;;;;;;;17.50;8.85;;;;;;;;;;5062368;28;20127;-57
2022/02/28 00:36:00;;;;;;;19.50;8.82;;;;;;;;;;5065079;28;20042;-56
2022/02/28 00:38:25;;;;;;;18.15;8.77;;;;;;;;;;5067256;28;20468;-59
2022/02/28 00:40:51;;;;;;;21.45;8.63;;;;;;;;;;5067613;28;20582;-58
2022/02/28 00:43:17;;;;;;;19.90;9.38;;;;;;;;;;5066848;28;20119;-58
2022/02/28 00:45:43;;;;;;;17.50;8.90;;;;;;;;;;5066392;28;20122;-57
2022/02/28 00:48:09;;;;;;;17.08;8.63;;;;;;;;;;5063840;28;20108;-57
2022/02/28 00:50:34;;;;;;;19.02;8.70;;;;;;;;;;5066048;28;20107;-57
2022/02/28 00:53:00;;;;;;;19.60;9.30;;;;;;;;;;5066095;28;20028;-56
2022/02/28 00:55:25;;;;;;;19.90;9.95;;;;;;;;;;5059770;28;20509;-58
2022/02/28 00:57:51;;;;;;;20.98;9.65;;;;;;;;;;5060608;28;20170;-58
2022/02/28 01:00:18;;;;;;;17.40;8.75;;;;;;;;;;5065480;28;20031;-57
2022/02/28 01:02:45;;;;;;;16.50;8.63;;;;;;;;;;5065524;28;20078;-57
2022/02/28 01:05:11;;;;;;;19.95;8.95;;;;;;;;;;5065638;28;20438;-58
2022/02/28 01:07:38;;;;;;;20.60;9.65;;;;;;;;;;5062000;28;20025;-57
2022/02/28 01:10:06;;;;;;;22.67;9.43;;;;;;;;;;5060981;28;20029;-56
2022/02/28 01:12:32;;;;;;;18.35;9.10;;;;;;;;;;5065127;28;20025;-58
2022/02/28 01:14:57;;;;;;;25.13;9.90;;;;;;;;;;5065929;28;20063;-57
2022/02/28 01:17:23;;;;;;;19.80;9.20;;;;;;;;;;5062745;28;20106;-58
2022/02/28 01:19:50;;;;;;;18.92;8.85;;;;;;;;;;5064376;28;20028;-57
2022/02/28 01:22:15;;;;;;;22.77;9.10;;;;;;;;;;5063068;28;20029;-58
2022/02/28 01:24:41;;;;;;;25.23;9.90;;;;;;;;;;5061738;28;20268;-58
2022/02/28 01:27:07;;;;;;;19.02;9.52;;;;;;;;;;5065375;28;20036;-56
2022/02/28 01:29:32;;;;;;;25.25;10.40;;;;;;;;;;5067947;28;20047;-58
2022/02/28 01:31:58;;;;;;;21.98;9.60;;;;;;;;;;5067446;28;20028;-56
2022/02/28 01:34:23;;;;;;;22.23;10.45;;;;;;;;;;5068152;28;20449;-57
2022/02/28 01:36:49;;;;;;;21.92;10.05;;;;;;;;;;5067173;28;20500;-57
2022/02/28 01:39:14;;;;;;;24.80;9.77;;;;;;;;;;5064714;28;20549;-58
2022/02/28 01:41:40;;;;;;;20.92;10.20;;;;;;;;;;5065162;28;20078;-58
2022/02/28 01:44:06;;;;;;;20.15;9.85;;;;;;;;;;5065920;28;20483;-58
2022/02/28 01:46:32;;;;;;;21.83;10.27;;;;;;;;;;5065784;28;20055;-57
2022/02/28 01:48:58;;;;;;;21.02;9.18;;;;;;;;;;5062194;28;20125;-57
2022/02/28 01:51:23;;;;;;;22.00;9.23;;;;;;;;;;5064862;28;20028;-57
2022/02/28 01:53:49;;;;;;;19.95;10.30;;;;;;;;;;5064475;28;20551;-58
2022/02/28 01:56:15;;;;;;;34.10;11.10;;;;;;;;;;5063999;28;20055;-58
2022/02/28 01:58:40;;;;;;;25.63;10.10;;;;;;;;;;5062304;28;20028;-56
2022/02/28 02:01:07;;;;;;;24.33;10.07;;;;;;;;;;5063722;28;20032;-57
2022/02/28 02:03:32;;;;;;;23.48;10.73;;;;;;;;;;5066573;28;20456;-56
2022/02/28 02:05:59;;;;;;;24.20;10.70;;;;;;;;;;5065188;28;20055;-56
2022/02/28 02:08:26;;;;;;;24.08;10.07;;;;;;;;;;5063682;28;20052;-55
2022/02/28 02:10:51;;;;;;;29.73;10.82;;;;;;;;;;5060981;28;20035;-59
2022/02/28 02:13:17;;;;;;;26.10;10.15;;;;;;;;;;5067531;28;20029;-58
2022/02/28 02:15:42;;;;;;;33.15;10.88;;;;;;;;;;5065124;28;20017;-58
2022/02/28 02:18:08;;;;;;;27.65;11.40;;;;;;;;;;5067811;28;20017;-58
2022/02/28 02:20:36;;;;;;;24.88;10.68;;;;;;;;;;5065654;28;20041;-58
2022/02/28 02:23:11;;;;;;;28.88;11.68;;;;;;;;;;5066858;28;20051;-56
2022/02/28 02:25:37;;;;;;;27.63;11.00;;;;;;;;;;5062644;28;20028;-57
2022/02/28 02:28:04;;;;;;;29.42;11.25;;;;;;;;;;5067371;28;20028;-57
2022/02/28 02:30:30;;;;;;;31.75;11.77;;;;;;;;;;5070597;28;20411;-58
2022/02/28 02:32:56;;;;;;;28.52;11.55;;;;;;;;;;5070875;28;20028;-57
2022/02/28 02:35:21;;;;;;;25.15;11.45;;;;;;;;;;5070415;28;20463;-58
2022/02/28 02:37:47;;;;;;;27.50;11.85;;;;;;;;;;5069006;28;20047;-56
2022/02/28 02:40:13;;;;;;;29.85;11.95;;;;;;;;;;5067048;28;20145;-57
2022/02/28 02:42:39;;;;;;;31.15;11.60;;;;;;;;;;5069295;28;20043;-56
2022/02/28 02:45:05;;;;;;;29.63;11.98;;;;;;;;;;5068978;28;20025;-59
2022/02/28 02:47:31;;;;;;;30.73;11.77;;;;;;;;;;5067844;28;20021;-57
2022/02/28 02:49:57;;;;;;;29.55;10.98;;;;;;;;;;5064410;28;20043;-57
2022/02/28 02:52:22;;;;;;;25.52;11.07;;;;;;;;;;5059151;28;20091;-57
2022/02/28 02:54:48;;;;;;;29.77;11.57;;;;;;;;;;5067965;28;20036;-57
2022/02/28 02:57:16;;;;;;;24.95;10.55;;;;;;;;;;5067735;28;20036;-57
2022/02/28 02:59:41;;;;;;;22.42;10.13;;;;;;;;;;5063118;28;20058;-57
2022/02/28 03:02:07;;;;;;;26.48;11.70;;;;;;;;;;5065958;28;20017;-56
2022/02/28 03:04:32;;;;;;;24.25;10.18;;;;;;;;;;5065272;28;20087;-57
2022/02/28 03:06:58;;;;;;;26.50;10.10;;;;;;;;;;5067511;28;20035;-57
2022/02/28 03:09:23;;;;;;;24.98;9.30;;;;;;;;;;5065495;28;20090;-58
2022/02/28 03:11:48;;;;;;;21.58;9.75;;;;;;;;;;5065362;28;20466;-56
2022/02/28 03:14:14;;;;;;;21.75;10.18;;;;;;;;;;5067521;28;20064;-57
2022/02/28 03:16:39;;;;;;;21.75;10.13;;;;;;;;;;5066933;28;20028;-59
2022/02/28 03:19:05;;;;;;;20.58;9.98;;;;;;;;;;5062431;28;20197;-57
2022/02/28 03:21:31;;;;;;;21.25;10.20;;;;;;;;;;5063383;28;20040;-57
2022/02/28 03:23:57;;;;;;;21.67;10.10;;;;;;;;;;5067606;28;20025;-57
2022/02/28 03:26:22;;;;;;;28.02;11.80;;;;;;;;;;5070957;28;20381;-57
2022/02/28 03:28:48;;;;;;;21.25;10.18;;;;;;;;;;5069476;28;20036;-56
2022/02/28 03:31:13;;;;;;;22.17;10.43;;;;;;;;;;5068218;28;20085;-52
2022/02/28 03:33:39;;;;;;;22.67;10.00;;;;;;;;;;5061282;28;20090;-57
2022/02/28 03:36:05;;;;;;;21.75;10.32;;;;;;;;;;5066774;28;20070;-57
2022/02/28 03:38:30;;;;;;;20.05;8.98;;;;;;;;;;5068304;28;20443;-57
2022/02/28 03:40:56;;;;;;;18.45;10.13;;;;;;;;;;5066308;28;20050;-57
2022/02/28 03:43:21;;;;;;;18.90;8.57;;;;;;;;;;5067400;28;20028;-57
2022/02/28 03:45:47;;;;;;;24.80;9.88;;;;;;;;;;5066925;28;20479;-57
2022/02/28 03:48:13;;;;;;;22.73;8.65;;;;;;;;;;5058238;28;20369;-57
2022/02/28 03:50:39;;;;;;;19.83;8.73;;;;;;;;;;5065551;28;20553;-57
2022/02/28 03:53:05;;;;;;;20.02;9.45;;;;;;;;;;5064143;28;20109;-57
2022/02/28 03:55:30;;;;;;;19.05;8.82;;;;;;;;;;5066737;28;20491;-57
2022/02/28 03:57:56;;;;;;;18.92;8.77;;;;;;;;;;5065944;28;20368;-58
2022/02/28 04:00:21;;;;;;;17.40;8.32;;;;;;;;;;5065980;28;20022;-56
2022/02/28 04:02:46;;;;;;;23.42;9.45;;;;;;;;;;5060629;28;20166;-57
2022/02/28 04:05:12;;;;;;;19.80;9.00;;;;;;;;;;5066690;28;20029;-55
2022/02/28 04:07:39;;;;;;;20.45;9.70;;;;;;;;;;5066208;28;20024;-57
2022/02/28 04:10:05;;;;;;;20.67;9.55;;;;;;;;;;5066499;28;20444;-58
2022/02/28 04:12:31;;;;;;;17.27;8.32;;;;;;;;;;5063063;28;20476;-57
2022/02/28 04:14:57;;;;;;;18.65;8.55;;;;;;;;;;5066437;28;20028;-59
2022/02/28 04:17:22;;;;;;;22.23;10.02;;;;;;;;;;5061753;28;20033;-54
2022/02/28 04:19:47;;;;;;;24.08;11.13;;;;;;;;;;5062500;28;20369;-56
2022/02/28 04:22:13;;;;;;;25.77;10.90;;;;;;;;;;5063941;28;20339;-58
2022/02/28 04:24:38;;;;;;;20.08;10.13;;;;;;;;;;5065249;28;20031;-57
2022/02/28 04:27:04;;;;;;;29.45;10.85;;;;;;;;;;5069231;28;20085;-58
2022/02/28 04:29:29;;;;;;;25.35;10.18;;;;;;;;;;5068166;28;20024;-57
2022/02/28 04:31:55;;;;;;;22.55;10.48;;;;;;;;;;5062217;28;20108;-57
2022/02/28 04:34:20;;;;;;;24.92;10.88;;;;;;;;;;5068177;28;20024;-56
2022/02/28 04:36:46;;;;;;;19.45;9.10;;;;;;;;;;5067618;28;20017;-57
2022/02/28 04:39:11;;;;;;;21.13;9.98;;;;;;;;;;5066627;28;20361;-58
2022/02/28 04:41:38;;;;;;;19.90;9.25;;;;;;;;;;5068690;28;20021;-58
2022/02/28 04:44:04;;;;;;;20.48;9.40;;;;;;;;;;5063934;28;20040;-56
2022/02/28 04:46:30;;;;;;;22.00;9.25;;;;;;;;;;5063185;28;20044;-58
2022/02/28 04:48:55;;;;;;;24.45;9.75;;;;;;;;;;5065186;28;20098;-57
2022/02/28 04:51:21;;;;;;;20.90;10.60;;;;;;;;;;5065267;28;20025;-57
2022/02/28 04:53:46;;;;;;;23.27;10.50;;;;;;;;;;5063027;28;20228;-57
2022/02/28 04:56:12;;;;;;;25.95;11.63;;;;;;;;;;5065137;28;20104;-57
2022/02/28 04:58:37;;;;;;;26.67;10.80;;;;;;;;;;5064888;28;20060;-54
2022/02/28 05:01:03;;;;;;;23.20;10.52;;;;;;;;;;5065475;28;20051;-58
2022/02/28 05:03:28;;;;;;;22.08;10.07;;;;;;;;;;5065364;28;20025;-58
2022/02/28 05:05:54;;;;;;;18.20;9.05;;;;;;;;;;5063567;28;20041;-57
2022/02/28 05:08:19;;;;;;;20.02;9.00;;;;;;;;;;5064755;28;20031;-56
2022/02/28 05:10:45;;;;;;;21.38;9.20;;;;;;;;;;5065536;28;20028;-57
2022/02/28 05:13:10;;;;;;;23.45;9.93;;;;;;;;;;5064569;28;20547;-57
2022/02/28 05:15:36;;;;;;;24.48;9.90;;;;;;;;;;5062232;28;20044;-55
2022/02/28 05:18:01;;;;;;;20.67;9.40;;;;;;;;;;5064840;28;20025;-57
2022/02/28 05:20:27;;;;;;;25.17;10.55;;;;;;;;;;5061298;28;20326;-56
2022/02/28 05:22:52;;;;;;;20.52;8.70;;;;;;;;;;5061217;28;20456;-57
2022/02/28 05:25:18;;;;;;;25.58;9.60;;;;;;;;;;5068619;28;20055;-55
2022/02/28 05:27:46;;;;;;;27.55;10.68;;;;;;;;;;5067688;28;20028;-58
2022/02/28 05:30:13;;;;;;;25.77;11.15;;;;;;;;;;5068137;28;20055;-57
2022/02/28 05:32:42;;;;;;;22.02;10.05;;;;;;;;;;5067176;28;20385;-56
2022/02/28 05:35:10;;;;;;;24.17;10.18;;;;;;;;;;5061765;28;20091;-58
2022/02/28 05:37:35;;;;;;;25.70;11.27;;;;;;;;;;5059835;28;20035;-53
2022/02/28 05:40:01;;;;;;;23.33;10.63;;;;;;;;;;5066761;28;20095;-57
2022/02/28 05:42:26;;;;;;;25.23;11.27;;;;;;;;;;5065790;28;20048;-57
2022/02/28 05:44:52;;;;;;;31.13;13.38;;;;;;;;;;5066816;28;20050;-58
2022/02/28 05:47:17;;;;;;;40.88;17.58;;;;;;;;;;5068039;28;20092;-55
2022/02/28 05:49:43;;;;;;;41.33;16.88;;;;;;;;;;5067913;28;20105;-57
2022/02/28 05:52:08;;;;;;;44.95;19.95;;;;;;;;;;5068462;28;20468;-57
2022/02/28 05:54:34;;;;;;;34.95;15.93;;;;;;;;;;5067832;28;20028;-57
2022/02/28 05:56:59;;;;;;;32.55;13.63;;;;;;;;;;5066910;28;20033;-57
2022/02/28 05:59:25;;;;;;;27.33;12.23;;;;;;;;;;5068205;28;20041;-58
2022/02/28 06:01:50;;;;;;;25.52;11.60;;;;;;;;;;5068127;28;20392;-57
2022/02/28 06:04:16;;;;;;;22.08;10.15;;;;;;;;;;5066424;28;20028;-54
2022/02/28 06:06:41;;;;;;;24.85;10.43;;;;;;;;;;5065685;28;20535;-55
2022/02/28 06:09:06;;;;;;;22.20;11.05;;;;;;;;;;5068109;28;20017;-57
2022/02/28 06:11:32;;;;;;;21.90;9.77;;;;;;;;;;5066834;28;20490;-57
2022/02/28 06:13:58;;;;;;;18.83;10.15;;;;;;;;;;5068670;28;20032;-57
2022/02/28 06:16:24;;;;;;;30.35;13.82;;;;;;;;;;5065562;28;20029;-55
2022/02/28 06:18:49;;;;;;;28.27;12.98;;;;;;;;;;5066734;28;20039;-57
2022/02/28 06:21:15;;;;;;;28.15;12.45;;;;;;;;;;5068247;28;20067;-58
2022/02/28 06:23:42;;;;;;;27.92;12.30;;;;;;;;;;5068901;28;20036;-57
2022/02/28 06:26:08;;;;;;;27.38;12.75;;;;;;;;;;5070939;28;20517;-57
2022/02/28 06:28:34;;;;;;;29.35;11.57;;;;;;;;;;5070084;28;20112;-58
2022/02/28 06:31:00;;;;;;;28.38;13.10;;;;;;;;;;5070358;28;20029;-57
2022/02/28 06:33:25;;;;;;;30.55;13.77;;;;;;;;;;5065191;28;20399;-57
2022/02/28 06:35:51;;;;;;;28.92;12.45;;;;;;;;;;5068803;28;20043;-56
2022/02/28 06:38:19;;;;;;;32.08;13.98;;;;;;;;;;5067846;28;20058;-57
2022/02/28 06:40:46;;;;;;;33.47;13.52;;;;;;;;;;5068930;28;20105;-57
2022/02/28 06:43:20;;;;;;;29.83;13.15;;;;;;;;;;5068288;28;20028;-58
2022/02/28 06:45:47;;;;;;;32.03;13.13;;;;;;;;;;5066345;28;20036;-58
2022/02/28 06:48:13;;;;;;;30.52;13.73;;;;;;;;;;5065347;28;20036;-57
2022/02/28 06:50:39;;;;;;;39.45;14.88;;;;;;;;;;5065216;28;20371;-57
2022/02/28 06:53:04;;;;;;;35.97;13.50;;;;;;;;;;5067775;28;20111;-57
2022/02/28 06:55:30;;;;;;;32.03;12.43;;;;;;;;;;5066632;28;20391;-58
2022/02/28 06:57:55;;;;;;;29.85;12.45;;;;;;;;;;5064830;28;20112;-57
2022/02/28 07:00:21;;;;;;;30.20;12.15;;;;;;;;;;5067541;28;20023;-57
2022/02/28 07:02:46;;;;;;;24.05;10.75;;;;;;;;;;5062099;28;20017;-58
2022/02/28 07:05:11;;;;;;;30.05;12.80;;;;;;;;;;5064232;28;20119;-57
2022/02/28 07:07:38;;;;;;;27.63;11.95;;;;;;;;;;5062402;28;20171;-57
2022/02/28 07:10:04;;;;;;;29.35;12.25;;;;;;;;;;5066930;28;20024;-56
2022/02/28 07:12:30;;;;;;;27.40;11.60;;;;;;;;;;5067111;28;20107;-57
2022/02/28 07:14:56;;;;;;;30.65;12.18;;;;;;;;;;5067650;28;20545;-57
2022/02/28 07:17:22;;;;;;;30.80;12.73;;;;;;;;;;5065064;28;20075;-57
2022/02/28 07:19:47;;;;;;;44.85;20.05;;;;;;;;;;5062189;28;20051;-57
2022/02/28 07:22:12;;;;;;;40.95;19.90;;;;;;;;;;5070484;28;20597;-57
2022/02/28 07:24:38;;;;;;;35.03;15.40;;;;;;;;;;5070478;28;20468;-57
2022/02/28 07:27:03;;;;;;;38.55;15.77;;;;;;;;;;5067697;28;20039;-57
2022/02/28 07:29:29;;;;;;;39.33;15.68;;;;;;;;;;5067474;28;20020;-57
2022/02/28 07:31:56;;;;;;;47.58;20.35;;;;;;;;;;5068040;28;20107;-56
2022/02/28 07:34:21;;;;;;;79.25;29.77;;;;;;;;;;5068803;28;20064;-57
2022/02/28 07:36:47;;;;;;;32.55;13.85;;;;;;;;;;5067908;28;20056;-57
2022/02/28 07:39:12;;;;;;;38.45;14.88;;;;;;;;;;5068233;28;20102;-58
2022/02/28 07:41:38;;;;;;;35.03;14.13;;;;;;;;;;5067123;28;20557;-57
2022/02/28 07:44:04;;;;;;;34.15;13.93;;;;;;;;;;5067662;28;20119;-57
2022/02/28 07:46:30;;;;;;;32.95;12.57;;;;;;;;;;5066928;28;20028;-57
2022/02/28 07:48:56;;;;;;;31.35;13.45;;;;;;;;;;5062524;28;20573;-57
2022/02/28 07:51:21;;;;;;;30.77;13.60;;;;;;;;;;5066807;28;20028;-57
2022/02/28 07:53:46;;;;;;;33.35;14.48;;;;;;;;;;5067010;28;20078;-57
2022/02/28 07:56:12;;;;;;;60.10;27.60;;;;;;;;;;5063528;28;20103;-57
2022/02/28 07:58:37;;;;;;;62.50;24.73;;;;;;;;;;5063796;28;20119;-57
2022/02/28 08:01:03;;;;;;;71.95;29.05;;;;;;;;;;5065327;28;20024;-57
2022/02/28 08:03:28;;;;;;;52.13;19.75;;;;;;;;;;5066466;28;20056;-57
2022/02/28 08:05:54;;;;;;;49.20;19.50;;;;;;;;;;5064681;28;20024;-59
2022/02/28 08:08:19;;;;;;;38.88;15.15;;;;;;;;;;5063186;28;20039;-57
2022/02/28 08:10:45;;;;;;;32.92;14.85;;;;;;;;;;5064716;28;20037;-57
2022/02/28 08:13:13;;;;;;;37.40;14.82;;;;;;;;;;5066317;28;20521;-58
2022/02/28 08:15:39;;;;;;;29.23;13.93;;;;;;;;;;5066256;28;20450;-58
2022/02/28 08:18:09;;;;;;;28.48;13.07;;;;;;;;;;5064797;28;20048;-57
2022/02/28 08:20:34;;;;;;;28.85;12.75;;;;;;;;;;5062778;28;20025;-57
2022/02/28 08:23:02;;;;;;;29.42;12.23;;;;;;;;;;5068396;28;20492;-57
2022/02/28 08:25:28;;;;;;;26.15;11.30;;;;;;;;;;5068959;28;20501;-57
2022/02/28 08:27:54;;;;;;;29.25;11.57;;;;;;;;;;5067292;28;20030;-57
2022/02/28 08:30:19;;;;;;;25.95;11.63;;;;;;;;;;5065401;28;20025;-57
2022/02/28 08:32:45;;;;;;;33.88;14.25;;;;;;;;;;5067476;28;20032;-57
2022/02/28 08:35:11;;;;;;;34.72;13.50;;;;;;;;;;5066704;28;20024;-58
2022/02/28 08:37:36;;;;;;;33.45;12.85;;;;;;;;;;5066351;28;20442;-56
2022/02/28 08:40:03;;;;;;;27.92;12.52;;;;;;;;;;5064047;28;20031;-57
2022/02/28 08:42:29;;;;;;;33.90;13.18;;;;;;;;;;5063790;28;20020;-58
2022/02/28 08:44:54;;;;;;;31.08;13.77;;;;;;;;;;5066192;28;20032;-59
2022/02/28 08:47:20;;;;;;;32.25;14.32;;;;;;;;;;5065339;28;20070;-57
2022/02/28 08:49:46;;;;;;;31.42;14.82;;;;;;;;;;5060894;28;20479;-57
2022/02/28 08:52:11;;;;;;;29.30;13.63;;;;;;;;;;5064345;28;20029;-57
2022/02/28 08:54:37;;;;;;;31.50;13.55;;;;;;;;;;5066324;28;20028;-58
2022/02/28 08:57:03;;;;;;;35.25;15.80;;;;;;;;;;5065997;28;20052;-58
2022/02/28 08:59:34;;;;;;;41.90;19.45;;;;;;;;;;5062919;28;20016;-57
2022/02/28 09:02:00;;;;;;;36.10;15.50;;;;;;;;;;5062471;28;20499;-58
2022/02/28 09:04:26;;;;;;;28.30;12.75;;;;;;;;;;5066133;28;20099;-57
2022/02/28 09:06:53;;;;;;;21.02;11.02;;;;;;;;;;5065720;28;20460;-58
2022/02/28 09:09:19;;;;;;;30.67;14.68;;;;;;;;;;5061901;28;20029;-58
2022/02/28 09:11:44;;;;;;;30.65;14.90;;;;;;;;;;5063739;28;20082;-58
2022/02/28 09:14:09;;;;;;;29.35;14.60;;;;;;;;;;5064350;28;20111;-57
2022/02/28 09:16:35;;;;;;;31.00;18.85;;;;;;;;;;5065196;28;20440;-58
2022/02/28 09:19:00;;;;;;;30.50;15.10;;;;;;;;;;5063801;28;20024;-57
2022/02/28 09:21:28;;;;;;;35.45;15.88;;;;;;;;;;5069573;28;20016;-56
2022/02/28 09:23:54;;;;;;;39.67;17.15;;;;;;;;;;5072639;28;20032;-58
2022/02/28 09:26:21;;;;;;;40.83;16.45;;;;;;;;;;5071944;28;20535;-59
2022/02/28 09:28:47;;;;;;;38.00;15.70;;;;;;;;;;5068966;28;20020;-58
2022/02/28 09:31:13;;;;;;;26.98;14.15;;;;;;;;;;5068452;28;20475;-58
2022/02/28 09:33:38;;;;;;;35.95;15.93;;;;;;;;;;5071181;28;20031;-57
2022/02/28 09:36:07;;;;;;;30.55;14.93;;;;;;;;;;5070229;28;20025;-57
2022/02/28 09:38:32;;;;;;;27.48;12.90;;;;;;;;;;5069644;28;20032;-59
2022/02/28 09:41:01;;;;;;;30.70;14.23;;;;;;;;;;5069419;28;20094;-58
2022/02/28 09:43:27;;;;;;;25.15;12.88;;;;;;;;;;5061530;28;20017;-58
2022/02/28 09:45:53;;;;;;;29.58;13.32;;;;;;;;;;5068353;28;20042;-59
2022/02/28 09:48:19;;;;;;;25.42;13.82;;;;;;;;;;5068220;28;20094;-58
2022/02/28 09:50:44;;;;;;;23.35;12.82;;;;;;;;;;5066520;28;20483;-58
2022/02/28 09:53:10;;;;;;;21.63;11.18;;;;;;;;;;5068024;28;20020;-58
2022/02/28 09:55:35;;;;;;;17.92;9.80;;;;;;;;;;5067432;28;20033;-58
2022/02/28 09:58:01;;;;;;;16.33;8.75;;;;;;;;;;5067986;28;20111;-57
2022/02/28 10:00:27;;;;;;;16.75;8.82;;;;;;;;;;5065059;28;20028;-58
2022/02/28 10:02:56;;;;;;;16.52;8.23;;;;;;;;;;5066536;28;20032;-58
2022/02/28 10:05:25;;;;;;;19.88;9.25;;;;;;;;;;5069148;28;20097;-58
2022/02/28 10:07:56;;;;;;;16.35;9.07;;;;;;;;;;5068326;28;20040;-57
2022/02/28 10:10:24;;;;;;;15.60;8.32;;;;;;;;;;5065297;28;20024;-60
2022/02/28 10:12:50;;;;;;;13.85;8.32;;;;;;;;;;5068066;28;20108;-59
2022/02/28 10:15:19;;;;;;;18.83;9.15;;;;;;;;;;5068258;28;20036;-58
2022/02/28 10:17:56;;;;;;;17.50;8.88;;;;;;;;;;5067205;28;20040;-60
2022/02/28 10:20:25;;;;;;;19.75;9.80;;;;;;;;;;5068435;28;20021;-58
2022/02/28 10:22:54;;;;;;;17.83;9.55;;;;;;;;;;5071406;28;20393;-59
2022/02/28 10:25:31;;;;;;;19.92;9.98;;;;;;;;;;5070963;28;20395;-58
2022/02/28 10:28:19;;;;;;;18.25;9.98;;;;;;;;;;5068575;28;20024;-57
2022/02/28 10:31:00;;;;;;;16.05;9.60;;;;;;;;;;5062169;28;20033;-58
2022/02/28 10:33:37;;;;;;;17.88;9.85;;;;;;;;;;5069504;28;20024;-57
2022/02/28 10:36:17;;;;;;;19.52;10.18;;;;;;;;;;5066843;28;20029;-57
2022/02/28 10:38:51;;;;;;;16.33;9.57;;;;;;;;;;5068217;28;20047;-59
2022/02/28 10:41:23;;;;;;;18.60;10.20;;;;;;;;;;5068208;28;20028;-60
2022/02/28 10:43:52;;;;;;;16.98;9.38;;;;;;;;;;5065522;28;20419;-59
2022/02/28 10:46:24;;;;;;;18.50;10.45;;;;;;;;;;5065812;28;20061;-59
2022/02/28 10:48:59;;;;;;;17.17;9.43;;;;;;;;;;5062760;28;20124;-57
2022/02/28 10:51:26;;;;;;;15.98;9.80;;;;;;;;;;5067353;28;20024;-58
2022/02/28 10:54:31;;;;;;;22.45;11.95;;;;;;;;;;5065221;28;20388;-59
2022/02/28 10:56:59;;;;;;;19.83;10.77;;;;;;;;;;5008533;28;20105;-59
2022/02/28 10:59:27;;;;;;;17.58;9.98;;;;;;;;;;5052179;28;20071;-58
2022/02/28 11:01:53;;;;;;;18.27;9.68;;;;;;;;;;5064319;28;20103;-60
2022/02/28 11:04:49;;;;;;;18.27;10.20;;;;;;;;;;5065917;28;20128;-59
2022/02/28 11:07:24;;;;;;;20.88;10.30;;;;;;;;;;5062696;28;20048;-57
2022/02/28 11:09:49;;;;;;;15.73;9.75;;;;;;;;;;5066394;28;20415;-58
2022/02/28 11:12:32;;;;;;;17.73;9.85;;;;;;;;;;5066993;28;20024;-58
2022/02/28 11:15:00;;;;;;;22.40;10.73;;;;;;;;;;5062211;28;20502;-58
2022/02/28 11:17:28;;;;;;;17.60;10.50;;;;;;;;;;5060945;28;20032;-58
2022/02/28 11:19:55;;;;;;;17.73;10.95;;;;;;;;;;5070462;28;20032;-58
2022/02/28 11:22:21;;;;;;;19.10;11.00;;;;;;;;;;5069633;28;20024;-59
2022/02/28 11:24:48;;;;;;;21.02;11.25;;;;;;;;;;5069693;28;20502;-57
2022/02/28 11:27:14;;;;;;;21.52;12.10;;;;;;;;;;5068056;28;20070;-58
2022/02/28 11:29:42;;;;;;;19.08;10.57;;;;;;;;;;5062119;28;20025;-58
2022/02/28 11:32:08;;;;;;;20.77;11.88;;;;;;;;;;5065459;28;20035;-59
2022/02/28 11:34:35;;;;;;;19.63;10.60;;;;;;;;;;5061084;28;20055;-60
2022/02/28 11:37:04;;;;;;;18.10;10.88;;;;;;;;;;5064925;28;20400;-58
2022/02/28 11:39:37;;;;;;;18.55;10.95;;;;;;;;;;5059497;28;20062;-59
2022/02/28 11:42:05;;;;;;;19.35;11.05;;;;;;;;;;5065914;28;20048;-60
2022/02/28 11:44:59;;;;;;;20.20;11.48;;;;;;;;;;5066240;28;20036;-59
2022/02/28 11:47:25;;;;;;;24.30;12.50;;;;;;;;;;5058234;28;20032;-57
2022/02/28 11:49:51;;;;;;;20.15;11.50;;;;;;;;;;5066738;28;20486;-60
2022/02/28 11:52:35;;;;;;;21.13;11.63;;;;;;;;;;5064916;28;20266;-58
2022/02/28 11:55:05;;;;;;;20.17;11.25;;;;;;;;;;5065560;28;20100;-59
2022/02/28 11:57:56;;;;;;;20.02;11.10;;;;;;;;;;5061850;28;20036;-59
2022/02/28 12:00:39;;;;;;;20.70;12.05;;;;;;;;;;5062916;28;20036;-59
2022/02/28 12:03:10;;;;;;;21.83;11.70;;;;;;;;;;5064096;28;20044;-58
2022/02/28 12:05:42;;;;;;;20.52;12.30;;;;;;;;;;5066549;28;20585;-59
2022/02/28 12:08:15;;;;;;;23.70;12.23;;;;;;;;;;5064914;28;20116;-58
2022/02/28 12:10:54;;;;;;;25.40;12.82;;;;;;;;;;5065266;28;20427;-59
2022/02/28 12:13:34;;;;;;;21.93;11.40;;;;;;;;;;5067522;28;20036;-59
2022/02/28 12:16:08;;;;;;;21.42;12.20;;;;;;;;;;5065855;28;20024;-58
2022/02/28 12:18:33;;;;;;;22.08;11.95;;;;;;;;;;5068279;28;20029;-59
2022/02/28 12:21:07;;;;;;;18.73;11.63;;;;;;;;;;5068778;28;20488;-59
2022/02/28 12:23:44;;;;;;;21.98;11.73;;;;;;;;;;5068253;28;20089;-58
2022/02/28 12:26:11;;;;;;;18.83;12.02;;;;;;;;;;5068097;28;20021;-59
2022/02/28 12:28:36;;;;;;;21.60;11.98;;;;;;;;;;5056770;28;20056;-58
2022/02/28 12:31:09;;;;;;;18.17;11.48;;;;;;;;;;5066600;28;20075;-59
2022/02/28 12:33:35;;;;;;;18.98;10.77;;;;;;;;;;5066754;28;20063;-59
2022/02/28 12:36:03;;;;;;;18.42;10.45;;;;;;;;;;5064032;28;20056;-59
2022/02/28 12:38:34;;;;;;;19.17;10.82;;;;;;;;;;5058241;28;20021;-59
2022/02/28 12:41:09;;;;;;;21.40;11.93;;;;;;;;;;5069027;28;20021;-58
2022/02/28 12:43:35;;;;;;;18.23;11.85;;;;;;;;;;5064769;28;20511;-59
2022/02/28 12:46:06;;;;;;;19.92;12.00;;;;;;;;;;5062872;28;20040;-59
2022/02/28 12:48:32;;;;;;;18.40;11.55;;;;;;;;;;5065037;28;20028;-59
2022/02/28 12:50:59;;;;;;;22.90;13.05;;;;;;;;;;5065433;28;20055;-59
2022/02/28 12:53:26;;;;;;;24.88;14.20;;;;;;;;;;5064298;28;20029;-60
2022/02/28 12:55:57;;;;;;;25.55;13.23;;;;;;;;;;5063696;28;20078;-59
2022/02/28 12:58:29;;;;;;;18.98;11.85;;;;;;;;;;5056917;28;20020;-58
2022/02/28 13:01:18;;;;;;;22.27;12.38;;;;;;;;;;5064919;28;20029;-59
2022/02/28 13:03:44;;;;;;;23.42;13.15;;;;;;;;;;5062764;28;20032;-59
2022/02/28 13:06:12;;;;;;;26.27;14.57;;;;;;;;;;5063906;28;20032;-59
2022/02/28 13:08:39;;;;;;;25.30;12.98;;;;;;;;;;5064829;28;20035;-59
2022/02/28 13:11:19;;;;;;;21.45;13.55;;;;;;;;;;5064762;28;20052;-58
2022/02/28 13:13:56;;;;;;;25.65;13.95;;;;;;;;;;5064835;28;20032;-59
2022/02/28 13:16:21;;;;;;;24.17;14.07;;;;;;;;;;5065099;28;20515;-58
2022/02/28 13:19:00;;;;;;;24.77;14.13;;;;;;;;;;5068227;28;20033;-60
2022/02/28 13:21:35;;;;;;;20.17;12.25;;;;;;;;;;5065482;28;20100;-59
2022/02/28 13:24:30;;;;;;;15.82;10.23;;;;;;;;;;5067806;28;20430;-59
2022/02/28 13:26:56;;;;;;;17.15;10.13;;;;;;;;;;5059352;28;20052;-60
2022/02/28 13:29:24;;;;;;;16.02;9.73;;;;;;;;;;5064122;28;20017;-59
2022/02/28 13:32:02;;;;;;;18.67;10.02;;;;;;;;;;5065674;28;20396;-59
2022/02/28 13:34:28;;;;;;;16.38;9.98;;;;;;;;;;5061505;28;20012;-60
2022/02/28 13:36:58;;;;;;;18.85;11.27;;;;;;;;;;5063313;28;20029;-59
2022/02/28 13:39:26;;;;;;;15.88;9.77;;;;;;;;;;5064682;28;20028;-59
2022/02/28 13:41:57;;;;;;;16.60;11.23;;;;;;;;;;5065391;28;20425;-60
2022/02/28 13:44:25;;;;;;;22.13;10.48;;;;;;;;;;5065306;28;20023;-60
2022/02/28 13:47:04;;;;;;;22.65;12.18;;;;;;;;;;5061465;28;20075;-59
2022/02/28 13:49:49;;;;;;;17.08;11.15;;;;;;;;;;5061241;28;20039;-60
2022/02/28 13:52:17;;;;;;;19.10;11.38;;;;;;;;;;5065075;28;20493;-58
2022/02/28 13:55:06;;;;;;;17.35;11.05;;;;;;;;;;5062086;28;20025;-59
2022/02/28 13:57:49;;;;;;;16.77;10.68;;;;;;;;;;5063382;28;20538;-58
2022/02/28 14:00:24;;;;;;;18.42;10.38;;;;;;;;;;5064092;28;20090;-58
2022/02/28 14:03:11;;;;;;;17.13;10.57;;;;;;;;;;5063653;28;20434;-60
2022/02/28 14:05:36;;;;;;;19.13;10.90;;;;;;;;;;5067318;28;20115;-60
2022/02/28 14:08:26;;;;;;;17.88;10.05;;;;;;;;;;5067923;28;20100;-58
2022/02/28 14:11:01;;;;;;;;;;;;;;;;;;5068723;28;20025;-58
2022/02/28 14:13:31;;;;;;;19.92;11.02;;;;;;;;;;5060491;28;19935;-59
2022/02/28 14:16:23;;;;;;;17.33;11.10;;;;;;;;;;5071011;28;20043;-58
2022/02/28 14:19:11;;;;;;;18.50;10.15;;;;;;;;;;5064447;28;20031;-59
2022/02/28 14:21:41;;;;;;;17.95;11.68;;;;;;;;;;5065127;28;20029;-60
2022/02/28 14:24:10;;;;;;;19.70;10.57;;;;;;;;;;5069123;28;20078;-61
2022/02/28 14:26:37;;;;;;;19.90;11.10;;;;;;;;;;5068875;28;20028;-59